Time;durP1;ratioP1;P1;durP2;ratioP2;P2;SDS_P1;SDS_P2;PMS_P1;PMS_P2;Temp;Humidity;BMP_temperature;BMP_pressure;BME280_temperature;BME280_humidity;BME280_pressure;Samples;Min_cycle;Max_cycle;Signal;HPM_P1;HPM_P2
2022/05/24 00:01:13;;;;;;;;;2.67;1.33;;;;;16.12;65.61;100011.56;5091625;28;45691;-61
2022/05/24 00:03:38;;;;;;;;;2.67;2.67;;;;;16.10;65.82;100024.16;5083584;28;45243;-61
2022/05/24 00:06:04;;;;;;;;;1.00;1.00;;;;;16.10;65.92;100033.16;5090460;28;45114;-62
2022/05/24 00:08:29;;;;;;;;;1.67;1.67;;;;;15.95;65.97;100020.66;5085197;27;45786;-65
2022/05/24 00:10:55;;;;;;;;;2.00;1.67;;;;;15.95;65.96;100014.38;5086809;28;50718;-64
2022/05/24 00:13:21;;;;;;;;;2.33;2.33;;;;;16.06;65.85;100038.56;5088682;28;45192;-63
2022/05/24 00:15:46;;;;;;;;;1.00;1.00;;;;;16.06;66.09;100041.28;5084379;28;45318;-61
2022/05/24 00:18:18;;;;;;;;;2.67;2.67;;;;;15.94;65.88;100051.22;5085954;28;45318;-62
2022/05/24 00:20:57;;;;;;;;;3.33;2.33;;;;;15.76;65.69;100048.66;5087320;28;47716;-62
2022/05/24 00:23:25;;;;;;;;;2.33;1.33;;;;;15.76;65.98;100072.91;5087832;28;45039;-62
2022/05/24 00:25:54;;;;;;;;;0.67;0.67;;;;;15.72;65.25;100065.69;5086385;28;45231;-67
2022/05/24 00:28:23;;;;;;;;;0.67;0.67;;;;;15.67;64.64;100079.16;5087649;28;45245;-62
2022/05/24 00:30:49;;;;;;;;;4.00;0.67;;;;;15.38;64.59;100044.34;5084684;28;45929;-64
2022/05/24 00:33:15;;;;;;;;;1.33;1.33;;;;;15.33;65.19;100029.97;5085549;28;45337;-63
2022/05/24 00:35:42;;;;;;;;;0.67;0.67;;;;;15.56;64.86;100071.16;5083656;28;45706;-63
2022/05/24 00:38:11;;;;;;;;;3.33;1.33;;;;;15.57;64.39;100070.25;5067469;28;45467;-61
2022/05/24 00:40:58;;;;;;;;;2.00;0.67;;;;;15.54;64.58;100070.28;5084513;27;45597;-63
2022/05/24 00:43:30;;;;;;;;;3.00;1.67;;;;;15.38;64.21;100031.78;5087578;28;45182;-61
2022/05/24 00:46:05;;;;;;;;;2.00;0.33;;;;;15.54;63.23;100040.66;5086072;28;45049;-63
2022/05/24 00:48:37;;;;;;;;;2.33;2.33;;;;;15.53;63.65;100048.75;5088036;27;45095;-63
2022/05/24 00:51:06;;;;;;;;;1.00;1.00;;;;;15.36;63.62;100016.50;5090137;28;45393;-62
2022/05/24 00:53:50;;;;;;;;;4.67;3.00;;;;;14.93;63.66;99955.72;5089543;28;44991;-62
2022/05/24 00:56:47;;;;;;;;;2.67;2.67;;;;;15.48;63.76;100054.16;5089493;28;45094;-62
2022/05/24 00:59:38;;;;;;;;;1.00;1.00;;;;;15.49;63.58;100045.16;5090940;28;45105;-61
2022/05/24 01:02:05;;;;;;;;;4.33;1.00;;;;;15.22;63.48;100000.44;5043124;28;46358;-61
2022/05/24 01:04:31;;;;;;;;;2.00;2.00;;;;;15.40;62.71;100046.09;5091052;27;45425;-62
2022/05/24 01:06:57;;;;;;;;;1.67;1.67;;;;;15.35;63.14;100050.63;5090476;27;45220;-63
2022/05/24 01:09:30;;;;;;;;;1.33;1.00;;;;;15.17;63.04;100032.75;5087253;28;45348;-64
2022/05/24 01:12:05;;;;;;;;;3.00;2.33;;;;;15.34;63.69;100058.69;5088602;28;45616;-61
2022/05/24 01:14:31;;;;;;;;;1.00;1.00;;;;;15.02;63.40;100016.69;5090842;28;45163;-61
2022/05/24 01:16:59;;;;;;;;;2.00;2.00;;;;;14.97;63.60;100010.44;5094015;28;45170;-62
2022/05/24 01:19:36;;;;;;;;;2.33;2.33;;;;;15.27;63.73;100057.84;5092334;28;44650;-62
2022/05/24 01:22:20;;;;;;;;;1.67;1.67;;;;;15.33;63.47;100064.97;5089052;28;46819;-63
2022/05/24 01:24:56;;;;;;;;;1.00;1.00;;;;;15.02;63.04;100009.50;5087695;27;45260;-65
2022/05/24 01:27:21;;;;;;;;;0.00;0.00;;;;;15.29;63.16;100061.41;5090105;28;45449;-62
2022/05/24 01:29:46;;;;;;;;;1.33;1.33;;;;;15.36;63.10;100062.28;5068249;28;46586;-62
2022/05/24 01:37:40;;;;;;;;;2.00;0.67;;;;;15.26;62.97;100048.88;5090032;28;45058;-62
2022/05/24 01:40:05;;;;;;;;;1.00;1.00;;;;;15.32;62.60;100065.88;5071643;27;45473;-61
2022/05/24 01:42:31;;;;;;;;;1.67;1.00;;;;;15.20;62.49;100040.81;5087638;27;46107;-63
2022/05/24 01:45:18;;;;;;;;;1.67;1.00;;;;;15.41;62.04;100071.22;5088717;28;45110;-62
2022/05/24 01:47:47;;;;;;;;;2.00;0.33;;;;;15.39;62.15;100073.94;5089323;28;45638;-64
2022/05/24 01:50:17;;;;;;;;;1.00;1.00;;;;;15.29;62.18;100075.78;5085545;28;45100;-62
2022/05/24 01:52:56;;;;;;;;;1.00;1.00;;;;;14.76;62.40;100001.50;5071098;28;46006;-62
2022/05/24 01:55:33;;;;;;;;;2.33;1.00;;;;;15.11;62.44;100056.97;5083643;27;45030;-63
2022/05/24 01:58:04;;;;;;;;;1.00;1.00;;;;;15.23;62.67;100082.97;5088788;28;45215;-62
2022/05/24 02:00:30;;;;;;;;;1.00;1.00;;;;;15.15;62.90;100064.16;5086410;28;45342;-65
2022/05/24 02:02:55;;;;;;;;;3.00;1.33;;;;;14.87;62.22;100026.56;5087406;28;45786;-62
2022/05/24 02:05:33;;;;;;;;;0.67;0.67;;;;;15.18;62.32;100093.75;5090769;28;45204;-61
2022/05/24 02:08:00;;;;;;;;;1.00;1.00;;;;;15.12;62.48;100091.06;5089783;28;44966;-64
2022/05/24 02:10:28;;;;;;;;;1.00;1.00;;;;;15.10;62.58;100088.38;5089803;28;45106;-62
2022/05/24 02:12:59;;;;;;;;;2.00;1.00;;;;;15.08;63.20;100084.81;5093365;28;46492;-64
2022/05/24 02:15:30;;;;;;;;;1.00;1.00;;;;;14.99;63.86;100073.16;5088382;28;45107;-64
2022/05/24 02:18:20;;;;;;;;;0.00;0.00;;;;;15.05;63.56;100083.94;5092799;27;44997;-61
2022/05/24 02:20:46;;;;;;;;;0.67;0.33;;;;;15.00;63.73;100078.56;5088789;28;45269;-63
2022/05/24 02:23:14;;;;;;;;;1.00;1.00;;;;;14.94;64.28;100086.63;5092882;28;45446;-64
2022/05/24 02:25:44;;;;;;;;;0.00;0.00;;;;;14.82;64.53;100070.53;5092715;28;45228;-63
2022/05/24 02:28:10;;;;;;;;;2.00;0.67;;;;;14.77;64.30;100057.09;5072549;28;45040;-62
2022/05/24 02:30:46;;;;;;;;;1.00;0.67;;;;;14.98;64.31;100074.97;5092804;28;44913;-63
2022/05/24 02:33:11;;;;;;;;;1.00;1.00;;;;;15.07;63.21;100087.50;5087101;28;45413;-62
2022/05/24 02:35:37;;;;;;;;;0.33;0.00;;;;;14.99;62.95;100089.31;5088202;28;45268;-62
2022/05/24 02:38:03;;;;;;;;;1.00;1.00;;;;;14.81;63.35;100074.09;5093415;28;45107;-63
2022/05/24 02:43:12;;;;;;;;;1.00;1.00;;;;;14.56;64.24;100036.47;5090452;28;45117;-63
2022/05/24 02:45:38;;;;;;;;;1.00;1.00;;;;;14.87;64.54;100084.84;5090277;28;44965;-62
2022/05/24 02:48:04;;;;;;;;;0.33;0.33;;;;;14.88;64.29;100090.25;5088985;28;44870;-61
2022/05/24 02:50:30;;;;;;;;;1.00;1.00;;;;;14.84;64.32;100093.81;5089660;28;45272;-62
2022/05/24 02:52:56;;;;;;;;;2.00;0.00;;;;;14.58;64.54;100056.16;5085449;28;45277;-62
2022/05/24 02:55:21;;;;;;;;;1.00;1.00;;;;;14.69;64.41;100086.66;5090370;28;45338;-62
2022/05/24 02:57:47;;;;;;;;;0.67;0.67;;;;;14.79;64.57;100102.81;5084066;28;45207;-62
2022/05/24 03:00:24;;;;;;;;;1.00;1.00;;;;;14.57;64.40;100067.84;5088361;27;45012;-61
2022/05/24 03:02:50;;;;;;;;;1.67;0.00;;;;;14.49;64.30;100067.84;5088709;28;45346;-63
2022/05/24 03:05:16;;;;;;;;;0.00;0.00;;;;;14.52;64.97;100067.84;5090293;27;45332;-62
2022/05/24 03:10:28;;;;;;;;;1.33;0.00;;;;;14.77;64.89;100094.72;5089190;28;45262;-63
2022/05/24 03:15:39;;;;;;;;;2.00;2.00;;;;;14.69;64.20;100091.16;5088746;28;45209;-63
2022/05/24 03:18:05;;;;;;;;;3.00;1.33;;;;;14.65;64.18;100074.13;5070261;28;45004;-63
2022/05/24 03:20:31;;;;;;;;;1.00;1.00;;;;;14.47;64.35;100056.19;5088396;27;46569;-61
2022/05/24 03:22:56;;;;;;;;;0.00;0.00;;;;;14.79;64.07;100118.94;5088653;28;45645;-70
2022/05/24 03:25:22;;;;;;;;;0.00;0.00;;;;;14.70;64.67;100109.06;5089264;28;45381;-63
2022/05/24 03:27:47;;;;;;;;;4.33;1.00;;;;;14.34;64.07;100047.25;5088492;28;45452;-62
2022/05/24 03:30:13;;;;;;;;;2.00;2.00;;;;;14.79;64.33;100118.94;5085629;28;45495;-64
2022/05/24 03:32:39;;;;;;;;;2.00;1.00;;;;;14.78;64.29;100136.84;5085195;28;46399;-63
2022/05/24 03:35:06;;;;;;;;;1.00;1.00;;;;;14.76;64.09;100137.75;5088012;28;44938;-63
2022/05/24 03:37:32;;;;;;;;;1.00;1.00;;;;;14.81;64.06;100139.53;5085034;28;44848;-70
2022/05/24 03:39:58;;;;;;;;;2.00;2.00;;;;;14.64;63.62;100106.41;5090624;28;45058;-62
2022/05/24 03:42:23;;;;;;;;;1.33;1.00;;;;;14.58;63.18;100096.50;5088329;28;45083;-63
2022/05/24 03:44:51;;;;;;;;;1.33;1.00;;;;;14.78;63.24;100130.56;5084605;28;44926;-62
2022/05/24 03:47:16;;;;;;;;;0.00;0.00;;;;;14.70;63.09;100141.31;5088081;28;44985;-64
2022/05/24 03:49:42;;;;;;;;;0.00;0.00;;;;;14.49;64.09;100124.28;5086938;28;45442;-65
2022/05/24 03:52:08;;;;;;;;;1.33;1.33;;;;;14.35;64.27;100104.56;5085279;28;45476;-62
2022/05/24 03:54:33;;;;;;;;;1.00;1.00;;;;;14.36;63.75;100115.31;5088426;28;45053;-61
2022/05/24 03:59:43;;;;;;;;;0.00;0.00;;;;;14.49;63.86;100167.28;5086846;28;45120;-61
2022/05/24 04:02:08;;;;;;;;;2.00;1.00;;;;;14.24;63.58;100125.16;5087377;28;45762;-63
2022/05/24 04:04:34;;;;;;;;;1.00;1.00;;;;;14.47;63.73;100176.22;5089038;28;45808;-63
2022/05/24 04:06:59;;;;;;;;;1.67;1.00;;;;;14.35;64.38;100153.84;5088775;27;45182;-62
2022/05/24 04:09:24;;;;;;;;;1.00;1.00;;;;;14.41;63.97;100166.38;5091001;28;45152;-64
2022/05/24 04:11:53;;;;;;;;;2.33;0.33;;;;;14.51;64.03;100178.94;5088468;28;46285;-62
2022/05/24 04:14:19;;;;;;;;;2.00;0.67;;;;;14.52;64.23;100180.72;5090732;28;45168;-64
2022/05/24 04:16:44;;;;;;;;;2.67;0.67;;;;;14.06;63.81;100094.69;5069405;28;45330;-63
2022/05/24 04:19:09;;;;;;;;;1.67;1.67;;;;;14.52;63.89;100177.16;5088888;28;45136;-63
2022/05/24 04:21:35;;;;;;;;;1.00;1.00;;;;;14.48;63.83;100175.34;5088754;27;46473;-63
2022/05/24 04:24:00;;;;;;;;;1.33;1.33;;;;;14.55;63.65;100186.13;5090445;28;45242;-68
2022/05/24 04:26:25;;;;;;;;;4.33;1.67;;;;;14.29;63.10;100139.50;5092630;28;45346;-72
2022/05/24 04:28:51;;;;;;;;;2.00;1.00;;;;;14.30;63.42;100149.34;5069537;28;45390;-62
2022/05/24 04:31:16;;;;;;;;;0.00;0.00;;;;;14.45;62.81;100178.03;5089623;28;45711;-62
2022/05/24 04:33:41;;;;;;;;;0.67;0.67;;;;;14.43;63.39;100188.78;5086943;28;45372;-63
2022/05/24 04:36:07;;;;;;;;;0.33;0.33;;;;;14.44;62.94;100197.75;5086631;28;45943;-63
2022/05/24 04:38:32;;;;;;;;;1.00;1.00;;;;;14.41;63.72;100216.56;5092532;27;45102;-62
2022/05/24 04:43:41;;;;;;;;;0.00;0.00;;;;;14.10;63.79;100162.75;5088218;28;45091;-62
2022/05/24 04:46:07;;;;;;;;;0.67;0.67;;;;;14.22;63.28;100191.41;5091390;28;45487;-63
2022/05/24 04:48:32;;;;;;;;;3.00;1.00;;;;;14.20;63.01;100183.34;5091898;28;45448;-63
2022/05/24 04:50:58;;;;;;;;;2.00;1.00;;;;;14.33;63.11;100224.59;5090545;28;45713;-63
2022/05/24 04:53:26;;;;;;;;;2.00;0.33;;;;;14.29;63.87;100209.38;5087908;28;45179;-62
2022/05/24 04:55:52;;;;;;;;;0.00;0.00;;;;;13.97;63.52;100162.72;5089588;28;45190;-62
2022/05/24 04:58:18;;;;;;;;;2.67;1.33;;;;;14.24;63.09;100200.38;5090862;28;45604;-62
2022/05/24 05:00:44;;;;;;;;;1.33;1.00;;;;;14.11;63.20;100183.34;5090646;27;45947;-62
2022/05/24 05:03:11;;;;;;;;;0.33;0.33;;;;;13.97;63.20;100169.84;5090242;28;45306;-62
2022/05/24 05:05:38;;;;;;;;;3.00;1.00;;;;;14.37;62.76;100245.22;5092145;28;45347;-64
2022/05/24 05:08:05;;;;;;;;;1.33;0.00;;;;;14.15;62.68;100215.56;5087452;28;45352;-62
2022/05/24 05:10:30;;;;;;;;;1.00;1.00;;;;;14.31;62.78;100243.41;5087626;28;46172;-62
2022/05/24 05:12:56;;;;;;;;;1.00;1.00;;;;;14.37;62.45;100251.50;5083509;28;45503;-63
2022/05/24 05:15:21;;;;;;;;;4.33;1.33;;;;;14.08;62.48;100197.66;5095045;28;45065;-62
2022/05/24 05:17:47;;;;;;;;;0.67;0.67;;;;;14.16;62.24;100219.19;5095217;28;45059;-62
2022/05/24 05:20:13;;;;;;;;;1.00;1.00;;;;;14.30;62.58;100235.31;5094197;28;46168;-72
2022/05/24 05:22:38;;;;;;;;;0.33;0.33;;;;;14.21;62.82;100211.13;5089417;28;45095;-63
2022/05/24 05:25:05;;;;;;;;;1.33;1.00;;;;;14.47;61.99;100262.25;5090905;28;45343;-63
2022/05/24 05:27:31;;;;;;;;;5.33;3.00;;;;;14.38;62.10;100263.13;5095723;28;45135;-62
2022/05/24 05:32:57;;;;;;;;;1.67;1.67;;;;;14.49;61.93;100272.13;5008748;28;45119;-62
2022/05/24 05:35:22;;;;;;;;;1.00;1.00;;;;;14.44;61.97;100257.78;5071935;28;45124;-65
2022/05/24 05:37:48;;;;;;;;;2.00;2.00;;;;;14.62;62.12;100281.16;5090318;28;45507;-62
2022/05/24 05:40:14;;;;;;;;;1.00;1.00;;;;;14.64;61.90;100286.53;5077190;28;46063;-68
2022/05/24 05:42:39;;;;;;;;;1.00;1.00;;;;;14.57;62.02;100283.78;5076989;28;45332;-62
2022/05/24 05:45:06;;;;;;;;;1.67;0.00;;;;;14.66;61.75;100290.13;5073445;28;45298;-62
2022/05/24 05:47:32;;;;;;;;;1.67;1.67;;;;;14.59;61.62;100270.38;5076217;28;45374;-63
2022/05/24 05:49:57;;;;;;;;;2.67;2.67;;;;;14.51;61.62;100256.88;5075788;28;46515;-64
2022/05/24 05:52:22;;;;;;;;;0.67;0.00;;;;;14.71;61.20;100304.47;5084281;28;45222;-62
2022/05/24 05:54:48;;;;;;;;;1.00;1.00;;;;;14.57;61.27;100280.22;5075096;28;45799;-63
2022/05/24 05:57:13;;;;;;;;;1.33;1.00;;;;;14.37;60.94;100266.72;5074941;28;45523;-62
2022/05/24 05:59:39;;;;;;;;;0.67;0.67;;;;;14.40;61.06;100274.75;5074086;28;45706;-64
2022/05/24 06:02:05;;;;;;;;;0.67;0.67;;;;;14.56;61.05;100314.25;5072337;28;45737;-64
2022/05/24 06:04:31;;;;;;;;;1.00;1.00;;;;;14.40;61.20;100282.81;5036534;28;45418;-63
2022/05/24 06:06:56;;;;;;;;;1.33;1.33;;;;;13.99;61.37;100216.41;5075106;28;45414;-63
2022/05/24 06:09:21;;;;;;;;;3.00;0.00;;;;;14.30;61.14;100271.16;5072383;28;45627;-64
2022/05/24 06:11:47;;;;;;;;;1.67;1.67;;;;;14.67;61.37;100321.50;5078185;28;45029;-63
2022/05/24 06:14:13;;;;;;;;;0.33;0.33;;;;;14.27;60.77;100252.34;5075337;28;45520;-67
2022/05/24 06:16:39;;;;;;;;;3.00;3.00;;;;;14.73;61.06;100322.41;5075618;28;45361;-62
2022/05/24 06:19:05;;;;;;;;;4.00;3.00;;;;;14.64;60.35;100306.25;5079844;28;45957;-63
2022/05/24 06:21:35;;;;;;;;;2.00;2.00;;;;;14.87;60.25;100338.56;5075071;28;45550;-62
2022/05/24 06:24:05;;;;;;;;;2.00;2.00;;;;;14.89;60.59;100343.94;5075144;28;45392;-65
2022/05/24 06:26:32;;;;;;;;;0.00;0.00;;;;;14.69;59.96;100301.78;5074974;28;45388;-63
2022/05/24 06:28:58;;;;;;;;;0.00;0.00;;;;;14.88;59.76;100328.69;5073514;28;46340;-64
2022/05/24 06:31:24;;;;;;;;;1.33;0.67;;;;;14.85;59.32;100324.22;5072889;28;45504;-62
2022/05/24 06:33:49;;;;;;;;;1.67;1.33;;;;;14.82;59.84;100328.72;5074691;28;45377;-65
2022/05/24 06:36:15;;;;;;;;;2.00;2.00;;;;;14.79;59.51;100296.41;5074084;28;45490;-62
2022/05/24 06:38:40;;;;;;;;;2.33;2.33;;;;;14.99;59.67;100326.94;5073724;28;45409;-64
2022/05/24 06:41:05;;;;;;;;;6.67;3.00;;;;;15.08;59.53;100335.03;5074589;28;45445;-66
2022/05/24 06:43:32;;;;;;;;;2.00;2.00;;;;;15.27;59.10;100359.25;5075005;28;45413;-62
2022/05/24 06:45:57;;;;;;;;;2.00;2.00;;;;;15.01;58.75;100306.28;5074839;28;45485;-63
2022/05/24 06:48:22;;;;;;;;;3.00;1.33;;;;;15.35;58.21;100354.78;5074524;28;45623;-63
2022/05/24 06:50:48;;;;;;;;;2.67;2.00;;;;;15.22;57.87;100326.94;5074328;28;45348;-63
2022/05/24 06:53:13;;;;;;;;;2.67;2.67;;;;;15.21;58.13;100306.34;5074219;28;45583;-70
2022/05/24 06:55:39;;;;;;;;;1.33;1.33;;;;;15.38;57.74;100353.91;5074598;28;45336;-62
2022/05/24 06:58:05;;;;;;;;;1.67;1.67;;;;;15.56;57.05;100359.28;5074027;28;45987;-63
2022/05/24 07:03:15;;;;;;;;;0.00;0.00;;;;;15.42;56.40;100332.31;5074263;28;45520;-67
2022/05/24 07:05:43;;;;;;;;;0.67;0.67;;;;;15.69;56.26;100370.03;5074635;28;45450;-62
2022/05/24 07:08:08;;;;;;;;;1.00;1.00;;;;;15.48;56.47;100336.84;5074269;28;45545;-63
2022/05/24 07:10:35;;;;;;;;;2.33;2.33;;;;;15.62;56.28;100348.50;5055607;28;45807;-66
2022/05/24 07:13:03;;;;;;;;;2.00;2.00;;;;;15.51;56.36;100317.06;5074185;28;45441;-65
2022/05/24 07:15:29;;;;;;;;;6.00;3.00;;;;;15.75;55.99;100362.81;5074597;28;45338;-63
2022/05/24 07:17:56;;;;;;;;;1.33;1.33;;;;;15.65;55.92;100353.84;5073684;28;46106;-64
2022/05/24 07:20:22;;;;;;;;;1.33;1.33;;;;;15.80;55.37;100377.22;5073676;28;45481;-64
2022/05/24 07:22:48;;;;;;;;;1.67;1.67;;;;;15.76;54.71;100364.66;5056045;28;45477;-62
2022/05/24 07:25:14;;;;;;;;;1.00;1.00;;;;;15.99;54.34;100390.69;5074558;28;45343;-63
2022/05/24 07:27:40;;;;;;;;;3.67;2.33;;;;;16.03;54.27;100396.03;5074170;28;46554;-65
2022/05/24 07:30:06;;;;;;;;;2.00;2.00;;;;;15.74;53.54;100342.19;5073520;28;50267;-65
2022/05/24 07:32:31;;;;;;;;;1.33;1.00;;;;;15.77;53.90;100352.09;5074656;28;45365;-64
2022/05/24 07:34:59;;;;;;;;;4.00;1.00;;;;;15.91;53.89;100363.75;5074877;28;45677;-64
2022/05/24 07:37:25;;;;;;;;;1.00;1.00;;;;;15.63;53.72;100317.06;5074107;28;45370;-64
2022/05/24 07:45:47;;;;;;;;;4.33;1.33;;;;;15.85;54.16;100350.28;5073814;28;45512;-63
2022/05/24 07:48:04;;;;;;;;;4.67;2.00;;;;;16.20;52.75;100370.84;5073406;28;45508;-62
2022/05/24 07:50:29;;;;;;;;;1.67;1.67;;;;;16.02;51.97;100328.72;5073388;28;45321;-67
2022/05/24 07:52:55;;;;;;;;;0.67;0.67;;;;;15.94;52.44;100282.03;5073553;28;45538;-62
2022/05/24 07:55:20;;;;;;;;;3.33;3.33;;;;;16.58;51.97;100383.31;5074134;28;45515;-65
2022/05/24 07:57:45;;;;;;;;;7.33;7.33;;;;;16.70;51.65;100399.47;5072405;28;46017;-64
2022/05/24 08:00:12;;;;;;;;;1.67;0.67;;;;;16.76;51.50;100393.13;5055180;28;45602;-64
2022/05/24 08:02:38;;;;;;;;;4.00;3.33;;;;;16.65;51.13;100368.03;5074037;28;45465;-64
2022/05/24 08:05:05;;;;;;;;;2.67;2.00;;;;;16.82;51.37;100392.22;5074159;28;45505;-65
2022/05/24 08:07:30;;;;;;;;;1.67;0.33;;;;;16.86;51.07;100396.72;5074283;28;46412;-63
2022/05/24 08:09:56;;;;;;;;;0.00;0.00;;;;;16.59;50.62;100342.84;5074711;28;45626;-66
2022/05/24 08:12:21;;;;;;;;;1.33;1.33;;;;;16.88;50.49;100403.91;5074115;28;46113;-63
2022/05/24 08:14:46;;;;;;;;;2.67;2.67;;;;;16.47;50.16;100318.66;5055025;28;45365;-63
2022/05/24 08:17:12;;;;;;;;;0.00;0.00;;;;;16.70;50.20;100380.56;5073017;28;46416;-63
2022/05/24 08:19:37;;;;;;;;;1.00;1.00;;;;;16.83;50.20;100400.31;5072863;28;45468;-64
2022/05/24 08:22:03;;;;;;;;;2.33;1.33;;;;;16.87;50.24;100396.69;5072823;28;45468;-63
2022/05/24 08:24:29;;;;;;;;;0.67;0.67;;;;;17.06;49.70;100402.00;5073894;28;45429;-63
2022/05/24 08:26:54;;;;;;;;;5.67;2.33;;;;;17.26;49.62;100402.78;5073302;28;46334;-63
2022/05/24 08:29:19;;;;;;;;;0.67;0.67;;;;;17.44;48.32;100401.75;5073175;28;45393;-64
2022/05/24 08:31:45;;;;;;;;;0.00;0.00;;;;;17.23;47.37;100356.91;5073084;28;45320;-65
2022/05/24 08:34:10;;;;;;;;;3.67;2.00;;;;;17.50;47.72;100404.41;5073241;28;45537;-64
2022/05/24 08:36:37;;;;;;;;;3.33;2.33;;;;;17.54;47.30;100390.88;5072775;28;45420;-64
2022/05/24 08:39:03;;;;;;;;;2.00;2.00;;;;;17.23;47.23;100323.63;5072854;28;45331;-64
2022/05/24 08:41:48;;;;;;;;;1.00;1.00;;;;;17.72;47.60;100409.66;5073161;28;45390;-69
2022/05/24 08:50:02;;;;;;;;;0.00;0.00;;;;;17.81;46.00;100377.13;5069812;28;45483;-63
2022/05/24 08:52:35;;;;;;;;;1.00;1.00;;;;;17.92;45.61;100405.88;5072659;28;45317;-71
2022/05/24 08:55:00;;;;;;;;;0.00;0.00;;;;;17.87;45.68;100403.25;5073489;28;45462;-68
2022/05/24 08:57:41;;;;;;;;;2.67;0.67;;;;;17.45;45.55;100325.22;5072436;28;46075;-66
2022/05/24 09:00:19;;;;;;;;;1.33;1.00;;;;;17.80;45.72;100409.56;5072900;28;45464;-66
2022/05/24 09:02:46;;;;;;;;;1.00;1.00;;;;;17.69;45.65;100396.16;5072810;28;45440;-64
2022/05/24 09:05:16;;;;;;;;;2.33;1.00;;;;;17.57;45.34;100390.84;5066039;28;45422;-64
2022/05/24 09:08:11;;;;;;;;;1.00;1.00;;;;;17.33;45.55;100373.94;5073024;28;45456;-64
2022/05/24 09:10:53;;;;;;;;;1.67;1.67;;;;;17.67;45.46;100408.78;5073296;28;45589;-64
2022/05/24 09:13:18;;;;;;;;;1.33;1.33;;;;;17.77;45.08;100405.09;5076126;28;45510;-65
2022/05/24 09:15:53;;;;;;;;;2.00;0.00;;;;;17.88;44.88;100407.72;5075832;28;45414;-63
2022/05/24 09:18:53;;;;;;;;;1.67;1.67;;;;;18.03;44.77;100399.50;5076105;28;45437;-64
2022/05/24 09:21:29;;;;;;;;;5.33;3.00;;;;;18.03;44.48;100399.50;5076241;28;45362;-64
2022/05/24 09:24:10;;;;;;;;;3.00;2.00;;;;;18.20;43.90;100406.53;5076140;28;45413;-68
2022/05/24 09:27:01;;;;;;;;;1.00;1.00;;;;;18.08;43.26;100388.59;5076770;28;45342;-68
2022/05/24 09:29:26;;;;;;;;;2.67;2.67;;;;;18.24;43.36;100392.06;5075911;28;45473;-65
2022/05/24 09:31:56;;;;;;;;;2.67;1.33;;;;;18.13;43.48;100377.75;5075501;28;45409;-64
2022/05/24 09:34:33;;;;;;;;;1.00;1.00;;;;;18.29;43.43;100403.72;5075736;28;45434;-67
2022/05/24 09:37:00;;;;;;;;;2.33;1.00;;;;;18.31;43.72;100399.16;5075741;28;45376;-65
2022/05/24 09:39:35;;;;;;;;;2.00;0.00;;;;;18.33;42.64;100412.69;5075324;28;46694;-63
2022/05/24 09:42:22;;;;;;;;;1.33;1.33;;;;;18.30;42.37;100410.91;5075680;28;45433;-66
2022/05/24 09:45:02;;;;;;;;;1.00;1.00;;;;;18.27;42.28;100412.78;5075804;28;45449;-67
2022/05/24 09:47:42;;;;;;;;;5.00;2.00;;;;;17.89;41.94;100349.19;5076985;28;45635;-63
2022/05/24 09:50:35;;;;;;;;;3.67;2.00;;;;;18.37;42.20;100415.34;5076662;28;46218;-66
2022/05/24 09:53:08;;;;;;;;;1.00;1.00;;;;;18.33;41.65;100424.41;5070980;28;45477;-64
2022/05/24 09:55:33;;;;;;;;;0.00;0.00;;;;;18.16;41.56;100423.69;5076296;28;45385;-63
2022/05/24 09:58:29;;;;;;;;;1.00;1.00;;;;;18.24;41.89;100425.38;5075650;28;45573;-64
2022/05/24 10:00:57;;;;;;;;;1.33;1.33;;;;;18.34;42.22;100414.47;5075652;28;45495;-64
2022/05/24 10:03:29;;;;;;;;;1.00;1.00;;;;;18.19;41.84;100383.09;5075131;28;45377;-65
2022/05/24 10:06:17;;;;;;;;;1.00;1.00;;;;;18.34;41.60;100419.91;5075338;28;45493;-64
2022/05/24 10:08:45;;;;;;;;;1.00;1.00;;;;;18.25;41.81;100415.50;5065363;28;45441;-63
2022/05/24 10:11:22;;;;;;;;;1.33;1.33;;;;;18.35;41.93;100438.81;5074771;28;46342;-65
2022/05/24 10:14:17;;;;;;;;;2.00;1.00;;;;;18.27;41.62;100434.41;5074957;28;45751;-64
2022/05/24 10:17:21;;;;;;;;;2.00;2.00;;;;;18.21;41.71;100435.34;5075012;28;45490;-63
2022/05/24 10:19:59;;;;;;;;;0.33;0.33;;;;;18.14;42.33;100431.81;5074506;28;45453;-64
2022/05/24 10:22:43;;;;;;;;;1.33;1.33;;;;;18.23;41.90;100431.72;5074551;28;47178;-62
2022/05/24 10:25:31;;;;;;;;;4.67;1.33;;;;;18.09;41.52;100386.81;5075147;28;45604;-64
2022/05/24 10:28:32;;;;;;;;;1.00;1.00;;;;;18.35;41.90;100430.69;5075232;28;45613;-65
2022/05/24 10:31:04;;;;;;;;;1.33;1.33;;;;;18.46;42.35;100430.56;5070549;28;45379;-63
2022/05/24 10:40:08;;;;;;;;;2.00;1.00;;;;;18.94;40.54;100421.91;5074431;28;45520;-62
2022/05/24 10:42:45;;;;;;;;;3.00;2.33;;;;;18.93;40.27;100423.72;5074788;28;45500;-64
2022/05/24 10:45:16;;;;;;;;;3.33;3.00;;;;;18.72;40.73;100405.91;5074153;28;45465;-66
2022/05/24 10:47:49;;;;;;;;;3.00;2.00;;;;;18.71;41.93;100406.84;5074528;28;45489;-67
2022/05/24 10:50:28;;;;;;;;;1.00;1.00;;;;;18.32;44.15;100349.59;5074305;28;45315;-65
2022/05/24 10:53:04;;;;;;;;;1.00;1.00;;;;;18.63;44.26;100421.34;5056422;28;45666;-63
2022/05/24 10:55:44;;;;;;;;;0.33;0.33;;;;;18.44;44.82;100415.28;5074370;28;46212;-64
2022/05/24 10:58:15;;;;;;;;;2.33;2.00;;;;;18.60;45.19;100444.84;5074035;28;45610;-64
2022/05/24 11:00:48;;;;;;;;;1.67;1.33;;;;;18.35;44.90;100395.53;5074423;28;45271;-64
2022/05/24 11:03:18;;;;;;;;;4.00;2.33;;;;;18.60;44.05;100447.53;5074857;28;45682;-69
2022/05/24 11:05:52;;;;;;;;;2.33;2.00;;;;;18.47;43.94;100409.84;5074148;28;47827;-67
2022/05/24 11:08:41;;;;;;;;;4.67;2.00;;;;;18.75;44.31;100438.34;5074121;28;45420;-67
2022/05/24 11:11:30;;;;;;;;;8.33;7.67;;;;;18.99;42.48;100451.63;5068577;28;45494;-65
2022/05/24 11:14:18;;;;;;;;;1.00;1.00;;;;;19.09;40.86;100442.44;5074656;28;45511;-66
2022/05/24 11:16:51;;;;;;;;;0.33;0.33;;;;;19.04;40.94;100444.31;5074537;28;45511;-71
2022/05/24 11:19:22;;;;;;;;;1.00;1.00;;;;;18.84;40.69;100406.69;5074640;28;45428;-64
2022/05/24 11:22:17;;;;;;;;;1.00;1.00;;;;;19.00;41.09;100437.19;5074884;28;45550;-66
2022/05/24 11:25:25;;;;;;;;;1.33;1.33;;;;;18.90;41.08;100426.47;5040335;28;45672;-68
2022/05/24 11:27:54;;;;;;;;;0.33;0.33;;;;;18.07;41.38;100288.63;5074354;28;45506;-66
2022/05/24 11:30:26;;;;;;;;;3.00;3.00;;;;;19.10;40.77;100447.84;5074233;28;45440;-64
2022/05/24 11:33:05;;;;;;;;;3.00;1.00;;;;;19.15;40.63;100440.59;5073208;28;45377;-64
2022/05/24 11:35:35;;;;;;;;;5.00;2.00;;;;;18.94;41.61;100401.16;5073990;28;45418;-65
2022/05/24 11:38:41;;;;;;;;;3.00;2.00;;;;;19.38;42.79;100442.03;5074242;28;46007;-63
2022/05/24 11:41:12;;;;;;;;;6.00;4.00;;;;;19.54;42.79;100448.13;5073891;28;45427;-71
2022/05/24 11:43:43;;;;;;;;;3.33;2.00;;;;;19.69;41.40;100441.59;5073545;28;45311;-63
2022/05/24 11:46:08;;;;;;;;;4.00;3.00;;;;;19.83;40.18;100442.28;5073679;28;45283;-67
2022/05/24 11:48:54;;;;;;;;;3.00;2.00;;;;;19.86;39.49;100428.69;5073218;28;46297;-65
2022/05/24 11:51:37;;;;;;;;;0.00;0.00;;;;;19.93;38.94;100434.91;5073350;28;45413;-64
2022/05/24 11:54:27;;;;;;;;;0.00;0.00;;;;;20.00;38.50;100428.44;5073110;28;45460;-65
2022/05/24 11:57:01;;;;;;;;;4.00;4.00;;;;;20.07;38.21;100437.34;5044478;28;45520;-66
2022/05/24 11:59:39;;;;;;;;;3.00;3.00;;;;;20.02;37.51;100423.88;5073452;28;46412;-64
2022/05/24 12:02:34;;;;;;;;;0.67;0.67;;;;;20.14;36.71;100441.72;5073607;28;45311;-64
2022/05/24 12:08:04;;;;;;;;;2.00;2.00;;;;;20.17;37.26;100449.81;5073357;28;45386;-64
2022/05/24 12:10:55;;;;;;;;;2.00;1.00;;;;;20.16;38.14;100444.44;5073086;28;45427;-63
2022/05/24 12:13:54;;;;;;;;;2.00;1.00;;;;;20.06;37.57;100439.19;5064351;28;45350;-68
2022/05/24 12:16:42;;;;;;;;;2.00;1.00;;;;;20.02;38.23;100448.28;5061888;28;45461;-64
2022/05/24 12:19:10;;;;;;;;;4.33;2.00;;;;;19.95;40.30;100446.59;5073674;28;45727;-68
2022/05/24 12:22:03;;;;;;;;;1.00;1.00;;;;;19.98;40.72;100449.28;5072895;28;45360;-64
2022/05/24 12:24:28;;;;;;;;;1.00;1.00;;;;;20.06;38.91;100455.47;5068295;28;45369;-63
2022/05/24 12:27:21;;;;;;;;;1.00;1.00;;;;;19.83;38.76;100409.75;5073172;28;45431;-62